createdAt,value
2019-02-06T00:00:58.498Z,32.08
2019-02-06T00:03:27.266Z,30.65
2019-02-06T00:05:55.856Z,30.85
2019-02-06T00:08:24.477Z,32.80
2019-02-06T00:10:54.624Z,33.10
2019-02-06T00:13:23.108Z,33.70
2019-02-06T00:15:51.939Z,30.88
2019-02-06T00:18:20.492Z,30.40
2019-02-06T00:20:48.996Z,32.00
2019-02-06T00:23:17.430Z,33.05
2019-02-06T00:25:45.919Z,32.15
2019-02-06T00:28:14.420Z,32.48
2019-02-06T00:30:43.064Z,30.10
2019-02-06T00:33:11.506Z,31.10
2019-02-06T00:35:39.995Z,30.08
2019-02-06T00:38:08.511Z,29.65
2019-02-06T00:40:37.931Z,31.73
2019-02-06T00:43:06.412Z,30.77
2019-02-06T00:45:34.844Z,28.50
2019-02-06T00:48:03.541Z,29.90
2019-02-06T00:50:31.991Z,33.53
2019-02-06T00:53:00.401Z,32.08
2019-02-06T00:55:28.880Z,31.60
2019-02-06T00:57:57.353Z,28.27
2019-02-06T01:00:25.803Z,30.43
2019-02-06T01:02:54.216Z,29.50
2019-02-06T01:05:22.902Z,32.05
2019-02-06T01:07:51.397Z,31.57
2019-02-06T01:10:22.649Z,29.57
2019-02-06T01:12:52.055Z,31.42
2019-02-06T01:15:20.492Z,29.77
2019-02-06T01:17:48.980Z,29.77
2019-02-06T01:20:18.460Z,28.50
2019-02-06T01:22:46.883Z,28.83
2019-02-06T01:25:18.209Z,31.50
2019-02-06T01:27:46.692Z,30.70
2019-02-06T01:30:22.191Z,29.55
2019-02-06T01:32:50.740Z,30.40
2019-02-06T01:35:19.473Z,29.87
2019-02-06T01:37:47.898Z,30.95
2019-02-06T01:40:20.564Z,33.50
2019-02-06T01:42:49.080Z,34.20
2019-02-06T01:45:21.422Z,29.90
2019-02-06T01:47:49.864Z,31.95
2019-02-06T01:50:19.197Z,30.57
2019-02-06T01:52:47.779Z,30.55
2019-02-06T01:55:16.470Z,31.48
2019-02-06T01:57:45.001Z,31.62
2019-02-06T02:00:16.560Z,30.30
2019-02-06T02:02:45.988Z,30.00
2019-02-06T02:05:17.140Z,31.07
2019-02-06T02:07:45.579Z,31.68
2019-02-06T02:10:14.832Z,31.65
2019-02-06T04:42:24.581Z,23.85
2019-02-06T04:44:52.996Z,26.70
2019-02-06T04:47:21.819Z,25.65
2019-02-06T04:49:50.243Z,25.45
2019-02-06T04:52:18.680Z,27.67
2019-02-06T04:54:47.106Z,24.40
2019-02-06T04:57:15.532Z,25.85
2019-02-06T04:59:43.959Z,25.10
2019-02-06T05:02:12.613Z,27.35
2019-02-06T05:04:41.397Z,26.25
2019-02-06T05:07:18.699Z,26.90
2019-02-06T05:09:40.042Z,27.00
2019-02-06T05:12:09.630Z,27.07
2019-02-06T05:14:38.293Z,25.17
2019-02-06T05:17:06.741Z,26.70
2019-02-06T05:19:35.163Z,25.00
2019-02-06T05:22:03.588Z,32.10
2019-02-06T05:24:32.001Z,43.05
2019-02-06T05:27:00.464Z,47.98
2019-02-06T05:29:28.868Z,59.50
2019-02-06T05:31:57.317Z,83.95
2019-02-06T05:34:25.738Z,63.45
2019-02-06T05:36:54.262Z,91.28
2019-02-06T05:39:22.668Z,57.62
2019-02-06T05:41:51.106Z,47.85
2019-02-06T05:44:19.526Z,36.23
2019-02-06T05:46:47.948Z,34.75
2019-02-06T05:49:16.363Z,31.07
2019-02-06T05:51:44.808Z,36.13
2019-02-06T05:54:13.511Z,30.08
2019-02-06T05:56:41.932Z,26.40
2019-02-06T05:59:10.344Z,58.63
2019-02-06T06:01:38.792Z,35.08
2019-02-06T06:04:07.221Z,44.75
2019-02-06T06:06:35.674Z,37.60
2019-02-06T06:09:07.198Z,34.08
2019-02-06T06:11:36.008Z,29.95
2019-02-06T06:14:04.723Z,31.12
2019-02-06T06:16:33.164Z,30.48
2019-02-06T06:19:01.573Z,27.30
2019-02-06T06:21:30.006Z,31.75
2019-02-06T06:23:58.429Z,26.65
2019-02-06T06:26:26.934Z,26.75
2019-02-06T06:28:55.721Z,28.12
2019-02-06T06:31:24.155Z,31.48
2019-02-06T06:33:52.560Z,33.05
2019-02-06T06:36:20.973Z,28.98
2019-02-06T06:38:49.400Z,27.87
2019-02-06T06:41:17.812Z,33.67
2019-02-06T06:43:46.242Z,30.43
2019-02-06T06:46:14.933Z,28.50
2019-02-06T06:48:43.375Z,33.33
2019-02-06T06:51:13.121Z,33.58
2019-02-06T06:53:41.563Z,37.53
2019-02-06T06:56:10.069Z,41.40
2019-02-06T06:58:38.505Z,32.67
2019-02-06T07:01:07.002Z,32.93
2019-02-06T07:03:35.425Z,30.68
2019-02-06T07:06:03.837Z,31.68
2019-02-06T07:08:32.286Z,30.92
2019-02-06T07:11:00.722Z,28.00
2019-02-06T07:13:29.166Z,28.02
2019-02-06T07:16:00.223Z,29.27
2019-02-06T07:18:27.859Z,29.02
2019-02-06T07:20:56.241Z,28.77
2019-02-06T07:23:24.697Z,28.83
2019-02-06T07:25:53.130Z,30.05
2019-02-06T07:28:21.593Z,30.82
2019-02-06T07:30:50.097Z,29.65
2019-02-06T07:33:18.703Z,27.82
2019-02-06T07:35:47.106Z,29.30
2019-02-06T07:38:24.017Z,30.35
2019-02-06T07:40:45.689Z,26.87
2019-02-06T07:43:14.130Z,28.30
2019-02-06T07:45:42.552Z,29.10
2019-02-06T07:48:10.981Z,28.75
2019-02-06T07:50:39.832Z,28.80
2019-02-06T07:53:09.297Z,28.40
2019-02-06T07:55:37.706Z,30.85
2019-02-06T07:58:06.215Z,30.32
2019-02-06T08:00:34.629Z,29.92
2019-02-06T08:03:03.057Z,29.30
2019-02-06T08:05:31.545Z,27.87
2019-02-06T08:08:00.062Z,28.73
2019-02-06T08:10:31.188Z,31.52
2019-02-06T08:13:00.069Z,27.32
2019-02-06T08:15:28.663Z,29.67
2019-02-06T08:17:57.193Z,28.35
2019-02-06T08:20:25.791Z,29.00
2019-02-06T08:22:54.837Z,27.67
2019-02-06T08:25:25.196Z,26.85
2019-02-06T08:27:53.872Z,29.10
2019-02-06T08:30:37.152Z,26.93
2019-02-06T08:33:05.914Z,28.70
2019-02-06T08:35:34.712Z,31.42
2019-02-06T08:38:03.218Z,31.93
2019-02-06T08:40:33.688Z,27.20
2019-02-06T08:43:02.505Z,28.47
2019-02-06T08:45:31.031Z,27.05
2019-02-06T08:47:59.448Z,25.30
2019-02-06T08:50:29.292Z,28.85
2019-02-06T08:52:57.715Z,28.17
2019-02-06T08:55:33.253Z,28.17
2019-02-06T08:58:02.765Z,27.80
2019-02-06T09:00:39.252Z,28.20
2019-02-06T09:03:09.392Z,28.33
2019-02-06T09:05:37.879Z,26.27
2019-02-06T09:08:06.525Z,26.87
2019-02-06T09:10:36.065Z,30.20
2019-02-06T09:13:06.080Z,28.77
2019-02-06T09:15:34.538Z,31.47
2019-02-06T09:18:03.009Z,31.70
2019-02-06T09:20:31.800Z,28.57
2019-02-06T09:23:00.269Z,27.00
2019-02-06T09:25:30.032Z,24.80
2019-02-06T09:27:58.592Z,26.50
2019-02-06T09:30:29.166Z,28.40
2019-02-06T09:32:57.943Z,26.47
2019-02-06T09:35:26.749Z,28.30
2019-02-06T09:37:55.456Z,24.93
2019-02-06T09:40:26.116Z,24.83
2019-02-06T09:42:54.539Z,25.77
2019-02-06T09:45:23.448Z,24.53
2019-02-06T09:47:51.881Z,22.43
2019-02-06T09:50:29.499Z,22.67
2019-02-06T09:52:57.956Z,21.90
2019-02-06T09:55:26.510Z,19.77
2019-02-06T09:57:55.055Z,23.30
2019-02-06T10:00:26.289Z,23.17
2019-02-06T10:02:54.790Z,24.57
2019-02-06T10:05:23.663Z,20.90
2019-02-06T10:07:52.068Z,22.90
2019-02-06T10:10:23.208Z,22.37
2019-02-06T10:12:51.616Z,22.83
2019-02-06T10:15:22.382Z,20.30
2019-02-06T10:17:50.865Z,20.53
2019-02-06T10:20:26.973Z,19.73
2019-02-06T10:22:55.413Z,21.47
2019-02-06T10:25:23.901Z,23.60
2019-02-06T10:27:52.321Z,22.07
2019-02-06T10:30:26.742Z,22.50
2019-02-06T10:32:55.642Z,22.63
2019-02-06T10:35:24.147Z,20.90
2019-02-06T10:37:52.583Z,24.83
2019-02-06T10:40:21.078Z,22.83
2019-02-06T10:42:49.633Z,23.20
2019-02-06T10:45:21.114Z,22.20
2019-02-06T10:47:50.451Z,21.70
2019-02-06T10:50:30.993Z,22.60
2019-02-06T10:52:59.487Z,20.67
2019-02-06T10:55:28.667Z,22.20
2019-02-06T10:57:57.105Z,21.93
2019-02-06T11:00:37.585Z,21.93
2019-02-06T11:03:06.133Z,22.20
2019-02-06T11:05:34.634Z,23.60
2019-02-06T11:08:03.125Z,21.90
2019-02-06T11:10:31.540Z,23.73
2019-02-06T11:13:01.754Z,23.43
2019-02-06T11:15:30.756Z,25.40
2019-02-06T11:17:59.236Z,22.60
2019-02-06T11:20:30.735Z,29.10
2019-02-06T11:22:59.298Z,22.80
2019-02-06T11:25:27.906Z,25.23
2019-02-06T11:27:56.395Z,25.70
2019-02-06T11:30:27.631Z,26.83
2019-02-06T11:32:56.040Z,25.60
2019-02-06T11:35:24.464Z,22.30
2019-02-06T11:37:53.009Z,20.73
2019-02-06T11:40:23.391Z,23.07
2019-02-06T11:42:52.150Z,24.57
2019-02-06T11:45:29.063Z,21.00
2019-02-06T11:47:57.733Z,20.67
2019-02-06T11:50:30.869Z,19.13
2019-02-06T11:52:59.299Z,21.40
2019-02-06T11:55:30.422Z,21.60
2019-02-06T11:57:58.893Z,28.33
2019-02-06T12:00:44.904Z,20.90
2019-02-06T12:03:13.559Z,26.87
2019-02-06T12:05:42.045Z,26.60
2019-02-06T12:08:12.632Z,37.80
2019-02-06T12:10:40.786Z,21.80
2019-02-06T12:13:09.604Z,24.47
2019-02-06T12:15:38.126Z,21.83
2019-02-06T12:18:07.176Z,24.40
2019-02-06T12:20:36.143Z,22.40
2019-02-06T12:23:05.203Z,23.27
2019-02-06T12:25:34.528Z,21.97
2019-02-06T12:28:05.210Z,21.87
2019-02-06T12:30:36.558Z,21.37
2019-02-06T12:33:05.596Z,21.90
2019-02-06T12:35:34.114Z,20.00
2019-02-06T12:38:02.715Z,21.60
2019-02-06T12:40:31.340Z,21.73
2019-02-06T12:42:59.827Z,21.83
2019-02-06T12:45:28.676Z,25.93
2019-02-06T12:47:57.453Z,23.57
2019-02-06T12:50:26.437Z,19.77
2019-02-06T12:52:57.352Z,22.13
2019-02-06T12:55:42.238Z,21.33
2019-02-06T12:58:10.704Z,21.83
2019-02-06T13:00:44.094Z,20.53
2019-02-06T13:03:12.496Z,21.30
2019-02-06T13:05:41.052Z,19.97
2019-02-06T13:08:09.523Z,21.47
2019-02-06T13:10:39.186Z,20.30
2019-02-06T13:13:07.739Z,20.10
2019-02-06T13:15:36.529Z,19.60
2019-02-06T13:18:05.647Z,21.53
2019-02-06T13:20:35.724Z,19.47
2019-02-06T13:23:05.265Z,19.93
2019-02-06T13:25:33.749Z,19.80
2019-02-06T13:28:02.229Z,21.20
2019-02-06T13:30:38.183Z,21.40
2019-02-06T13:33:08.056Z,21.03
2019-02-06T13:35:38.423Z,19.90
2019-02-06T13:38:06.910Z,22.20
2019-02-06T13:40:45.251Z,22.50
2019-02-06T13:43:05.761Z,21.70
2019-02-06T13:45:37.429Z,20.00
2019-02-06T13:48:06.387Z,19.93
2019-02-06T13:50:34.892Z,19.20
2019-02-06T13:53:03.381Z,19.70
2019-02-06T13:55:31.810Z,18.90
2019-02-06T13:58:00.212Z,20.17
2019-02-06T14:00:37.436Z,19.13
2019-02-06T14:03:06.895Z,18.77
2019-02-06T14:05:35.674Z,18.00
2019-02-06T14:08:07.135Z,18.47
2019-02-06T14:10:35.911Z,21.73
2019-02-06T14:13:04.696Z,19.97
2019-02-06T14:15:41.111Z,18.97
2019-02-06T14:18:10.456Z,18.40
2019-02-06T14:20:40.433Z,18.80
2019-02-06T14:23:14.173Z,19.03
2019-02-06T14:26:08.829Z,18.03
2019-02-06T14:28:55.570Z,19.10
2019-02-06T14:31:33.018Z,18.10
2019-02-06T14:34:10.297Z,19.57
2019-02-06T14:36:59.652Z,19.77
2019-02-06T14:39:54.304Z,18.07
2019-02-06T14:42:28.899Z,18.47
2019-02-06T14:45:03.642Z,16.77
2019-02-06T14:47:35.743Z,17.27
2019-02-06T14:50:36.359Z,14.67
2019-02-06T14:53:17.154Z,17.30
2019-02-06T14:56:00.407Z,16.73
2019-02-06T14:58:48.260Z,16.63
2019-02-06T15:01:19.772Z,16.97
2019-02-06T15:03:51.274Z,17.07
2019-02-06T15:06:42.129Z,19.33
2019-02-06T15:09:35.130Z,18.87
2019-02-06T15:12:15.143Z,19.30
2019-02-06T15:14:49.468Z,18.60
2019-02-06T15:17:36.220Z,18.77
2019-02-06T15:20:24.254Z,17.90
2019-02-06T15:23:07.963Z,18.73
2019-02-06T15:25:51.436Z,19.27
2019-02-06T15:28:38.069Z,18.40
2019-02-06T15:31:12.037Z,20.23
2019-02-06T15:34:24.023Z,18.57
2019-02-06T15:37:16.429Z,18.33
2019-02-06T15:40:12.992Z,18.83
2019-02-06T15:42:44.641Z,21.20
2019-02-06T15:45:28.028Z,18.53
2019-02-06T15:48:17.568Z,21.07
2019-02-06T15:50:56.868Z,19.27
2019-02-06T15:53:41.056Z,20.80
2019-02-06T15:56:24.497Z,20.07
2019-02-06T15:58:58.653Z,20.10
2019-02-06T16:01:36.058Z,20.80
2019-02-06T16:04:20.547Z,23.80
2019-02-06T16:06:59.421Z,20.83
2019-02-06T16:09:59.710Z,26.50
2019-02-06T16:12:58.498Z,23.30
2019-02-06T16:15:32.707Z,22.77
2019-02-06T16:18:04.683Z,21.70
2019-02-06T16:20:38.959Z,23.10
2019-02-06T16:23:22.216Z,22.07
2019-02-06T16:25:56.638Z,25.77
2019-02-06T16:29:03.164Z,22.47
2019-02-06T16:31:40.240Z,22.60
2019-02-06T16:34:40.251Z,23.17
2019-02-06T16:37:29.395Z,24.37
2019-02-06T16:40:17.456Z,28.57
2019-02-06T16:42:57.554Z,21.63
2019-02-06T16:45:34.585Z,20.63
2019-02-06T16:48:17.340Z,22.23
2019-02-06T16:50:51.925Z,21.20
2019-02-06T16:53:44.570Z,21.80
2019-02-06T16:56:34.406Z,22.47
2019-02-06T16:59:25.698Z,22.37
2019-02-06T17:02:14.720Z,21.10
2019-02-06T17:04:48.857Z,20.70
2019-02-06T17:07:23.100Z,20.00
2019-02-06T17:10:21.984Z,19.67
2019-02-06T17:12:53.498Z,19.47
2019-02-06T17:15:27.828Z,20.10
2019-02-06T17:18:02.097Z,15.53
2019-02-06T17:20:48.816Z,18.33
2019-02-06T17:23:26.405Z,18.60
2019-02-06T17:26:00.709Z,17.90
2019-02-06T17:28:34.897Z,18.83
2019-02-06T17:31:09.308Z,20.03
2019-02-06T17:33:58.993Z,18.37
2019-02-06T17:36:39.163Z,17.47
2019-02-06T17:39:24.169Z,18.10
2019-02-06T17:41:52.143Z,18.17
2019-02-06T17:44:44.581Z,21.60
2019-02-06T17:47:35.938Z,21.97
2019-02-06T17:50:31.824Z,20.13
2019-02-06T17:53:30.783Z,21.73
2019-02-06T17:55:59.281Z,21.27
2019-02-06T17:58:30.010Z,20.20
2019-02-06T18:01:03.446Z,19.90
2019-02-06T18:03:35.464Z,19.67
2019-02-06T18:06:04.260Z,22.20
2019-02-06T18:08:32.688Z,24.77
2019-02-06T18:11:01.193Z,25.37
2019-02-06T18:13:29.610Z,27.70
2019-02-06T18:15:58.108Z,26.33
2019-02-06T18:18:26.805Z,23.57
2019-02-06T18:20:55.300Z,25.87
2019-02-06T18:23:23.781Z,24.37
2019-02-06T18:25:54.325Z,25.63
2019-02-06T18:28:22.833Z,23.97
2019-02-06T18:30:51.460Z,27.73
2019-02-06T18:33:19.901Z,27.50
2019-02-06T18:35:48.910Z,29.17
2019-02-06T18:38:17.384Z,33.00
2019-02-06T18:40:47.101Z,33.50
2019-02-06T18:43:17.130Z,32.93
2019-02-06T18:45:45.759Z,27.90
2019-02-06T18:48:14.385Z,27.73
2019-02-06T18:50:42.886Z,29.47
2019-02-06T18:53:11.752Z,26.20
2019-02-06T18:55:40.188Z,24.87
2019-02-06T18:58:10.570Z,24.67
2019-02-06T19:00:41.304Z,28.13
2019-02-06T19:03:18.886Z,26.37
2019-02-06T19:05:47.597Z,26.50
2019-02-06T19:08:16.355Z,25.30
2019-02-06T19:10:44.957Z,26.10
2019-02-06T19:13:13.361Z,23.07
2019-02-06T19:15:42.079Z,23.87
2019-02-06T19:18:11.028Z,26.33
2019-02-06T19:20:39.479Z,24.33
2019-02-06T19:23:08.043Z,29.87
2019-02-06T19:25:36.614Z,44.23
2019-02-06T19:28:05.111Z,45.20
2019-02-06T19:30:36.866Z,30.47
2019-02-06T19:33:05.650Z,24.67
2019-02-06T19:35:34.171Z,36.50
2019-02-06T19:38:02.588Z,33.10
2019-02-06T19:40:31.009Z,41.40
2019-02-06T19:43:02.475Z,35.47
2019-02-06T19:45:30.485Z,36.40
2019-02-06T19:47:59.387Z,31.27
2019-02-06T19:50:33.616Z,31.60
2019-02-06T19:53:02.125Z,23.80
2019-02-06T19:55:30.655Z,23.57
2019-02-06T19:57:59.134Z,21.53
2019-02-06T20:00:34.966Z,28.70
2019-02-06T20:03:04.906Z,35.27
2019-02-06T20:05:33.485Z,28.83
2019-02-06T20:08:01.973Z,35.30
2019-02-06T20:10:45.181Z,24.67
2019-02-06T20:13:14.641Z,31.07
2019-02-06T20:15:43.190Z,24.83
2019-02-06T20:18:12.118Z,30.40
2019-02-06T20:20:40.822Z,25.47
2019-02-06T20:23:09.335Z,21.20
2019-02-06T20:25:37.914Z,22.50
2019-02-06T20:28:06.507Z,16.47
2019-02-06T20:30:34.999Z,22.20
2019-02-06T20:33:03.505Z,19.07
2019-02-06T20:35:32.070Z,20.57
2019-02-06T20:38:00.501Z,22.47
2019-02-06T20:40:34.211Z,23.07
2019-02-06T20:43:02.817Z,23.23
2019-02-06T20:45:31.675Z,18.20
2019-02-06T20:48:00.263Z,17.67
2019-02-06T20:50:33.651Z,20.30
2019-02-06T20:53:02.464Z,18.20
2019-02-06T20:55:30.956Z,21.30
2019-02-06T20:57:59.400Z,19.93
2019-02-06T21:00:39.979Z,18.80
2019-02-06T21:03:08.499Z,21.13
2019-02-06T21:05:37.671Z,17.70
2019-02-06T21:08:07.444Z,19.10
2019-02-06T21:10:36.625Z,20.43
2019-02-06T21:13:06.138Z,20.67
2019-02-06T21:15:34.795Z,18.27
2019-02-06T21:18:03.567Z,18.60
2019-02-06T21:20:32.158Z,20.73
2019-02-06T21:23:01.061Z,20.60
2019-02-06T21:25:29.484Z,20.37
2019-02-06T21:28:12.548Z,20.75
2019-02-06T21:30:43.165Z,20.90
2019-02-06T21:33:11.601Z,19.30
2019-02-06T21:35:40.419Z,17.20
2019-02-06T21:38:08.947Z,21.17
2019-02-06T21:40:38.022Z,19.60
2019-02-06T21:43:07.317Z,15.60
2019-02-06T21:45:36.071Z,14.93
2019-02-06T21:48:05.514Z,20.17
2019-02-06T21:50:34.281Z,19.00
2019-02-06T21:53:02.708Z,19.03
2019-02-06T21:55:31.128Z,18.20
2019-02-06T21:57:59.771Z,19.42
2019-02-06T22:00:33.800Z,19.43
2019-02-06T22:03:02.305Z,21.40
2019-02-06T22:05:31.113Z,18.67
2019-02-06T22:07:59.685Z,19.53
2019-02-06T22:10:28.122Z,19.02
2019-02-06T22:12:56.564Z,18.70
2019-02-06T22:15:27.356Z,19.87
2019-02-06T22:17:55.863Z,17.95
2019-02-06T22:20:24.743Z,16.97
2019-02-06T22:22:53.180Z,20.10
2019-02-06T22:25:21.669Z,20.97
2019-02-06T22:27:51.811Z,20.25
2019-02-06T22:30:23.306Z,19.43
2019-02-06T22:32:52.152Z,20.52
2019-02-06T22:35:21.029Z,21.35
2019-02-06T22:37:49.494Z,21.50
2019-02-06T22:40:27.142Z,19.37
2019-02-06T22:42:55.598Z,18.27
2019-02-06T22:45:25.862Z,19.80
2019-02-06T22:47:54.370Z,18.60
2019-02-06T22:50:28.345Z,20.08
2019-02-06T22:52:57.122Z,22.32
2019-02-06T22:55:25.771Z,21.25
2019-02-06T22:57:54.311Z,21.33
2019-02-06T23:00:33.051Z,21.25
2019-02-06T23:03:01.505Z,20.55
2019-02-06T23:05:29.995Z,22.25
2019-02-06T23:07:58.512Z,19.32
2019-02-06T23:10:27.087Z,21.68
2019-02-06T23:12:55.599Z,22.20
2019-02-06T23:15:24.012Z,22.95
2019-02-06T23:17:53.084Z,23.18
2019-02-06T23:20:21.514Z,22.13
2019-02-06T23:22:49.946Z,21.42
2019-02-06T23:25:18.364Z,19.65
2019-02-06T23:27:46.847Z,20.90
2019-02-06T23:30:16.145Z,20.55
2019-02-06T23:32:44.908Z,24.77
2019-02-06T23:35:13.423Z,21.65
2019-02-06T23:37:41.871Z,22.07
2019-02-06T23:40:15.699Z,23.47
2019-02-06T23:42:44.219Z,21.48
2019-02-06T23:45:12.911Z,20.57
2019-02-06T23:47:41.879Z,22.75
2019-02-06T23:50:13.025Z,22.20
2019-02-06T23:52:41.510Z,22.50
2019-02-06T23:55:10.453Z,22.13
2019-02-06T23:57:38.874Z,22.37
